createdAt,value
2019-03-26T00:01:17.367Z,7.50
2019-03-26T00:03:48.047Z,7.50
2019-03-26T00:06:18.917Z,7.40
2019-03-26T00:08:49.273Z,7.40
2019-03-26T00:11:18.445Z,7.40
2019-03-26T00:13:51.154Z,7.40
2019-03-26T00:16:22.098Z,7.40
2019-03-26T00:18:56.974Z,7.40
2019-03-26T00:21:26.361Z,7.40
2019-03-26T00:23:58.317Z,7.40
2019-03-26T00:26:26.887Z,7.50
2019-03-26T00:28:56.358Z,7.50
2019-03-26T00:31:26.500Z,7.40
2019-03-26T00:33:55.023Z,7.50
2019-03-26T00:36:26.528Z,7.50
2019-03-26T00:38:55.733Z,7.50
2019-03-26T00:41:44.738Z,7.50
2019-03-26T00:44:15.290Z,7.50
2019-03-26T00:46:46.756Z,7.50
2019-03-26T00:49:17.624Z,7.50
2019-03-26T00:51:47.380Z,7.40
2019-03-26T00:54:17.167Z,7.40
2019-03-26T00:56:47.084Z,7.50
2019-03-26T00:59:16.414Z,7.40
2019-03-26T01:01:50.763Z,7.40
2019-03-26T01:04:32.185Z,7.50
2019-03-26T01:06:54.552Z,7.40
2019-03-26T01:09:23.239Z,7.40
2019-03-26T01:11:52.656Z,7.50
2019-03-26T01:14:26.166Z,7.50
2019-03-26T01:16:58.159Z,7.40
2019-03-26T01:19:26.920Z,7.40
2019-03-26T01:21:57.169Z,7.50
2019-03-26T01:24:26.598Z,7.50
2019-03-26T01:26:55.142Z,7.50
2019-03-26T01:29:23.892Z,7.50
2019-03-26T01:31:58.349Z,7.40
2019-03-26T01:34:28.454Z,7.40
2019-03-26T01:36:58.781Z,7.40
2019-03-26T01:39:29.157Z,7.40
2019-03-26T01:42:00.422Z,7.30
2019-03-26T01:44:30.634Z,7.30
2019-03-26T01:47:00.903Z,7.30
2019-03-26T01:49:32.030Z,7.30
2019-03-26T01:52:02.026Z,7.30
2019-03-26T01:54:30.543Z,7.30
2019-03-26T01:56:59.013Z,7.20
2019-03-26T01:59:30.275Z,7.20
2019-03-26T02:01:59.044Z,7.10
2019-03-26T02:04:29.023Z,7.10
2019-03-26T02:07:01.091Z,7.10
2019-03-26T02:09:30.173Z,7.00
2019-03-26T02:12:01.896Z,6.90
2019-03-26T02:14:30.412Z,6.90
2019-03-26T02:16:58.897Z,6.80
2019-03-26T02:19:33.451Z,6.80
2019-03-26T02:22:12.185Z,6.80
2019-03-26T02:24:44.468Z,6.80
2019-03-26T02:27:17.773Z,6.80
2019-03-26T02:29:46.292Z,6.70
2019-03-26T02:32:18.006Z,6.70
2019-03-26T02:34:48.006Z,6.70
2019-03-26T02:37:16.595Z,6.60
2019-03-26T02:39:47.873Z,6.60
2019-03-26T02:42:19.658Z,6.50
2019-03-26T02:44:49.367Z,6.50
2019-03-26T02:47:18.617Z,6.40
2019-03-26T02:49:52.364Z,6.30
2019-03-26T02:52:20.864Z,6.20
2019-03-26T02:54:50.954Z,6.20
2019-03-26T02:57:21.021Z,6.10
2019-03-26T02:59:54.530Z,6.00
2019-03-26T03:02:27.508Z,5.90
2019-03-26T03:04:58.061Z,5.80
2019-03-26T03:07:26.525Z,5.80
2019-03-26T03:09:56.952Z,5.70
2019-03-26T03:12:27.547Z,5.60
2019-03-26T03:14:58.448Z,5.60
2019-03-26T03:17:28.531Z,5.50
2019-03-26T03:19:57.215Z,5.50
2019-03-26T03:22:27.436Z,5.50
2019-03-26T03:24:55.951Z,5.40
2019-03-26T03:27:25.709Z,5.40
2019-03-26T03:29:55.799Z,5.40
2019-03-26T03:32:25.766Z,5.40
2019-03-26T03:34:56.910Z,5.50
2019-03-26T03:37:36.231Z,5.60
2019-03-26T03:40:08.790Z,5.70
2019-03-26T03:42:39.344Z,5.70
2019-03-26T03:45:09.513Z,5.80
2019-03-26T03:47:39.006Z,5.90
2019-03-26T03:50:13.109Z,5.80
2019-03-26T03:52:42.299Z,5.80
2019-03-26T03:55:12.100Z,5.80
2019-03-26T03:57:41.495Z,5.80
2019-03-26T04:00:15.711Z,5.80
2019-03-26T04:02:46.589Z,5.80
2019-03-26T04:05:15.597Z,5.80
2019-03-26T04:07:44.983Z,5.80
2019-03-26T04:10:15.063Z,5.80
2019-03-26T04:12:43.589Z,5.80
2019-03-26T04:15:12.115Z,5.80
2019-03-26T04:17:44.149Z,5.80
2019-03-26T04:20:13.971Z,5.80
2019-03-26T04:22:44.121Z,5.80
2019-03-26T04:25:16.701Z,5.80
2019-03-26T04:27:45.969Z,5.80
2019-03-26T04:30:21.149Z,5.70
2019-03-26T04:32:51.169Z,5.70
2019-03-26T04:35:19.627Z,5.70
2019-03-26T04:37:51.950Z,5.60
2019-03-26T04:40:22.608Z,5.60
2019-03-26T04:42:52.861Z,5.50
2019-03-26T04:45:23.291Z,5.60
2019-03-26T04:47:54.235Z,5.50
2019-03-26T04:50:28.444Z,5.50
2019-03-26T04:53:00.699Z,5.50
2019-03-26T04:55:30.433Z,5.50
2019-03-26T04:58:00.426Z,5.50
2019-03-26T05:00:29.090Z,5.50
2019-03-26T05:02:59.807Z,5.50
2019-03-26T05:05:30.825Z,5.60
2019-03-26T05:08:00.148Z,5.60
2019-03-26T05:10:31.797Z,5.60
2019-03-26T05:13:01.963Z,5.60
2019-03-26T05:15:32.498Z,5.60
2019-03-26T05:18:04.183Z,5.60
2019-03-26T05:20:32.952Z,5.60
2019-03-26T05:23:01.853Z,5.60
2019-03-26T05:25:30.381Z,5.60
2019-03-26T05:28:01.461Z,5.60
2019-03-26T05:30:35.660Z,5.50
2019-03-26T05:33:04.720Z,5.50
2019-03-26T05:35:35.353Z,5.50
2019-03-26T05:38:04.945Z,5.40
2019-03-26T05:40:35.007Z,5.50
2019-03-26T05:43:06.429Z,5.50
2019-03-26T05:45:35.395Z,5.50
2019-03-26T05:48:04.804Z,5.50
2019-03-26T05:50:34.206Z,5.50
2019-03-26T05:53:05.054Z,5.60
2019-03-26T05:55:35.316Z,5.60
2019-03-26T05:58:04.548Z,5.70
2019-03-26T06:00:35.597Z,5.70
2019-03-26T06:03:05.528Z,5.70
2019-03-26T06:05:34.052Z,5.70
2019-03-26T06:08:02.695Z,5.70
2019-03-26T06:10:31.207Z,5.70
2019-03-26T06:13:01.356Z,5.60
2019-03-26T06:15:33.088Z,5.60
2019-03-26T06:18:01.674Z,5.70
2019-03-26T06:20:31.100Z,5.70
2019-03-26T06:23:02.073Z,5.80
2019-03-26T06:25:32.779Z,5.80
2019-03-26T06:28:01.355Z,5.80
2019-03-26T06:30:29.839Z,5.90
2019-03-26T06:33:03.135Z,5.90
2019-03-26T06:35:31.425Z,6.00
2019-03-26T06:38:00.100Z,6.10
2019-03-26T06:40:28.584Z,6.10
2019-03-26T06:42:57.075Z,6.10
2019-03-26T06:45:30.651Z,6.20
2019-03-26T06:47:59.280Z,6.30
2019-03-26T06:50:27.776Z,6.30
2019-03-26T06:52:56.280Z,6.40
2019-03-26T06:55:26.436Z,6.40
2019-03-26T06:57:54.995Z,6.50
2019-03-26T07:00:38.551Z,6.60
2019-03-26T07:03:07.611Z,6.70
2019-03-26T07:05:36.059Z,6.70
2019-03-26T07:08:05.892Z,6.80
2019-03-26T07:10:35.216Z,6.90
2019-03-26T07:13:04.763Z,7.00
2019-03-26T07:15:33.617Z,7.10
2019-03-26T07:18:03.936Z,7.20
2019-03-26T07:20:32.795Z,7.30
2019-03-26T07:23:01.398Z,7.50
2019-03-26T07:25:33.675Z,7.60
2019-03-26T07:28:07.409Z,7.70
2019-03-26T07:30:39.941Z,7.90
2019-03-26T07:33:10.107Z,8.00
2019-03-26T07:35:40.977Z,8.20
2019-03-26T07:38:09.630Z,8.30
2019-03-26T07:40:41.046Z,8.40
2019-03-26T07:43:10.176Z,8.50
2019-03-26T07:45:38.719Z,8.70
2019-03-26T07:48:10.359Z,8.80
2019-03-26T07:50:39.842Z,8.90
2019-03-26T07:53:09.498Z,9.00
2019-03-26T07:55:39.954Z,9.10
2019-03-26T07:58:08.404Z,9.10
2019-03-26T08:00:41.272Z,9.20
2019-03-26T08:03:09.720Z,9.30
2019-03-26T08:05:39.989Z,9.30
2019-03-26T08:08:09.839Z,9.40
2019-03-26T08:10:38.589Z,9.30
2019-03-26T08:13:07.667Z,9.40
2019-03-26T08:15:40.099Z,9.40
2019-03-26T08:18:08.599Z,9.40
2019-03-26T08:20:37.061Z,9.40
2019-03-26T08:23:05.783Z,9.30
2019-03-26T08:25:34.226Z,9.20
2019-03-26T08:28:05.087Z,9.20
2019-03-26T08:30:34.251Z,9.20
2019-03-26T08:33:02.773Z,9.20
2019-03-26T08:35:31.293Z,9.20
2019-03-26T08:38:12.605Z,9.20
2019-03-26T08:40:35.196Z,9.20
2019-03-26T08:43:03.713Z,9.30
2019-03-26T08:45:32.265Z,9.30
2019-03-26T08:48:00.904Z,9.30
2019-03-26T08:50:29.355Z,9.40
2019-03-26T08:52:57.840Z,9.40
2019-03-26T08:55:27.990Z,9.40
2019-03-26T08:58:03.664Z,9.40
2019-03-26T09:00:32.346Z,9.40
2019-03-26T09:03:04.192Z,9.50
2019-03-26T09:05:34.957Z,9.60
2019-03-26T09:08:04.947Z,9.70
2019-03-26T09:10:33.412Z,9.60
2019-03-26T09:13:03.127Z,9.60
2019-03-26T09:15:32.632Z,9.60
2019-03-26T09:18:01.696Z,9.70
2019-03-26T09:20:31.038Z,9.70
2019-03-26T09:23:07.604Z,9.80
2019-03-26T09:25:35.822Z,9.90
2019-03-26T09:28:09.423Z,10.00
2019-03-26T09:30:38.919Z,10.00
2019-03-26T09:33:08.947Z,10.10
2019-03-26T09:35:37.393Z,10.10
2019-03-26T09:38:05.996Z,10.20
2019-03-26T09:40:34.435Z,10.30
2019-03-26T09:43:04.408Z,10.40
2019-03-26T09:45:34.470Z,10.50
2019-03-26T09:48:03.077Z,10.50
2019-03-26T09:50:33.544Z,10.50
2019-03-26T09:53:03.102Z,10.50
2019-03-26T09:55:31.599Z,10.60
2019-03-26T09:58:00.087Z,10.70
2019-03-26T10:00:28.627Z,10.80
2019-03-26T10:02:58.680Z,10.90
2019-03-26T10:05:29.423Z,11.00
2019-03-26T10:08:01.389Z,11.00
2019-03-26T10:10:35.804Z,11.20
2019-03-26T10:13:04.900Z,11.30
2019-03-26T10:15:34.972Z,11.30
2019-03-26T10:18:06.223Z,11.30
2019-03-26T10:20:35.828Z,11.20
2019-03-26T10:23:07.758Z,11.10
2019-03-26T10:25:38.030Z,10.90
2019-03-26T10:28:06.883Z,10.80
2019-03-26T10:30:39.820Z,10.60
2019-03-26T10:33:09.758Z,10.70
2019-03-26T10:35:38.383Z,10.70
2019-03-26T10:38:07.436Z,10.80
2019-03-26T10:40:42.845Z,10.90
2019-03-26T10:43:13.547Z,11.00
2019-03-26T10:45:43.494Z,11.20
2019-03-26T10:48:11.956Z,11.30
2019-03-26T10:50:40.442Z,11.40
2019-03-26T10:53:10.431Z,11.50
2019-03-26T10:55:39.062Z,11.50
2019-03-26T10:58:07.676Z,11.40
2019-03-26T11:00:36.265Z,11.40
2019-03-26T11:03:05.026Z,11.40
2019-03-26T11:05:33.947Z,11.40
2019-03-26T11:08:04.598Z,11.50
2019-03-26T11:10:34.771Z,11.50
2019-03-26T11:13:04.879Z,11.60
2019-03-26T11:15:33.324Z,11.50
2019-03-26T11:18:03.374Z,11.50
2019-03-26T11:20:33.399Z,11.50
2019-03-26T11:23:01.950Z,11.60
2019-03-26T11:25:30.405Z,11.80
2019-03-26T11:28:04.101Z,11.80
2019-03-26T11:30:32.960Z,11.90
2019-03-26T11:33:03.032Z,11.90
2019-03-26T11:35:31.585Z,12.00
2019-03-26T11:38:00.287Z,12.00
2019-03-26T11:40:28.740Z,12.00
2019-03-26T11:42:58.778Z,11.90
2019-03-26T11:45:28.853Z,11.90
2019-03-26T11:48:04.520Z,11.70
2019-03-26T11:50:34.811Z,11.70
2019-03-26T11:53:03.398Z,11.60
2019-03-26T11:55:31.859Z,11.60
2019-03-26T11:58:00.336Z,11.50
2019-03-26T12:00:32.062Z,11.60
2019-03-26T12:03:00.595Z,11.70
2019-03-26T12:05:29.042Z,11.70
2019-03-26T12:07:59.029Z,11.80
2019-03-26T12:10:28.697Z,11.80
2019-03-26T12:12:58.248Z,12.00
2019-03-26T12:15:28.121Z,12.10
2019-03-26T12:17:57.527Z,12.20
2019-03-26T12:20:27.042Z,12.30
2019-03-26T12:22:56.668Z,12.20
2019-03-26T12:25:26.390Z,12.30
2019-03-26T12:27:57.395Z,12.40
2019-03-26T12:30:34.295Z,12.40
2019-03-26T12:33:05.147Z,12.40
2019-03-26T12:35:36.469Z,12.40
2019-03-26T12:38:11.945Z,12.40
2019-03-26T12:40:42.880Z,12.30
2019-03-26T12:43:11.340Z,12.50
2019-03-26T12:45:39.825Z,12.50
2019-03-26T12:48:08.363Z,12.60
2019-03-26T12:50:36.904Z,12.60
2019-03-26T12:53:07.452Z,12.60
2019-03-26T12:55:35.977Z,12.60
2019-03-26T12:58:06.288Z,12.70
2019-03-26T13:00:36.852Z,12.80
2019-03-26T13:03:05.372Z,12.80
2019-03-26T13:05:33.820Z,12.90
2019-03-26T13:08:02.377Z,12.80
2019-03-26T13:10:30.845Z,12.80
2019-03-26T13:12:59.362Z,12.70
2019-03-26T13:15:33.730Z,12.80
2019-03-26T13:18:04.031Z,12.80
2019-03-26T13:20:33.288Z,12.80
2019-03-26T13:23:02.005Z,12.80
2019-03-26T13:25:30.760Z,12.70
2019-03-26T13:27:59.503Z,12.60
2019-03-26T13:30:30.343Z,12.70
2019-03-26T13:32:58.807Z,12.80
2019-03-26T13:35:27.363Z,12.80
2019-03-26T13:37:58.720Z,12.90
2019-03-26T13:40:27.921Z,12.90
2019-03-26T13:42:56.708Z,12.90
2019-03-26T13:45:25.223Z,12.80
2019-03-26T13:47:56.489Z,12.70
2019-03-26T13:50:24.976Z,12.60
2019-03-26T13:52:53.438Z,12.60
2019-03-26T13:55:21.894Z,12.70
2019-03-26T13:57:50.582Z,12.70
2019-03-26T14:00:33.731Z,12.70
2019-03-26T14:03:02.348Z,12.70
2019-03-26T14:05:30.879Z,12.80
2019-03-26T14:07:59.358Z,12.80
2019-03-26T14:10:40.082Z,12.80
2019-03-26T14:12:58.194Z,12.80
2019-03-26T14:15:26.842Z,12.90
2019-03-26T14:17:59.519Z,12.90
2019-03-26T14:20:27.987Z,12.90
2019-03-26T14:22:56.549Z,12.80
2019-03-26T14:25:25.370Z,12.70
2019-03-26T14:27:53.960Z,12.70
2019-03-26T14:30:28.201Z,12.60
2019-03-26T14:32:56.793Z,12.50
2019-03-26T14:35:25.243Z,12.30
2019-03-26T14:37:53.708Z,12.10
2019-03-26T14:40:22.264Z,12.00
2019-03-26T14:42:52.919Z,11.90
2019-03-26T14:45:21.361Z,11.90
2019-03-26T14:47:49.840Z,11.80
2019-03-26T14:50:18.583Z,11.70
2019-03-26T14:52:48.596Z,11.70
2019-03-26T14:55:18.633Z,11.50
2019-03-26T14:57:47.099Z,11.50
2019-03-26T15:00:18.701Z,11.50
2019-03-26T15:02:49.199Z,11.40
2019-03-26T15:05:17.432Z,11.20
2019-03-26T15:07:49.728Z,11.20
2019-03-26T15:10:23.440Z,11.10
2019-03-26T15:12:52.903Z,11.10
2019-03-26T15:15:25.782Z,10.90
2019-03-26T15:17:54.267Z,10.90
2019-03-26T15:20:22.879Z,10.80
2019-03-26T15:22:54.107Z,10.80
2019-03-26T15:25:22.831Z,10.70
2019-03-26T15:27:51.355Z,10.70
2019-03-26T15:30:19.980Z,10.60
2019-03-26T15:32:48.526Z,10.70
2019-03-26T15:35:17.073Z,10.70
2019-03-26T15:37:45.518Z,10.60
2019-03-26T15:40:19.868Z,10.70
2019-03-26T15:42:48.321Z,10.70
2019-03-26T15:45:17.845Z,10.80
2019-03-26T15:47:49.746Z,10.90
2019-03-26T15:50:24.326Z,10.90
2019-03-26T15:52:55.161Z,11.00
2019-03-26T15:55:24.077Z,10.90
2019-03-26T15:57:59.761Z,10.90
2019-03-26T16:00:33.259Z,10.80
2019-03-26T16:03:02.122Z,10.80
2019-03-26T16:05:31.937Z,10.70
2019-03-26T16:08:00.713Z,10.60
2019-03-26T16:10:31.057Z,10.60
2019-03-26T16:12:59.763Z,10.60
2019-03-26T16:15:28.410Z,10.60
2019-03-26T16:17:57.016Z,10.70
2019-03-26T16:20:25.925Z,10.80
2019-03-26T16:22:57.375Z,10.90
2019-03-26T16:25:27.957Z,11.00
2019-03-26T16:27:58.489Z,11.00
2019-03-26T16:30:27.180Z,11.10
2019-03-26T16:32:59.439Z,11.20
2019-03-26T16:35:28.275Z,11.20
2019-03-26T16:37:58.019Z,11.20
2019-03-26T16:40:31.098Z,11.10
2019-03-26T16:43:01.236Z,11.20
2019-03-26T16:45:29.854Z,11.20
2019-03-26T16:48:01.124Z,11.20
2019-03-26T16:50:30.431Z,11.20
2019-03-26T16:52:58.895Z,11.20
2019-03-26T16:55:28.033Z,11.00
2019-03-26T16:58:02.995Z,11.00
2019-03-26T17:00:33.072Z,10.90
2019-03-26T17:03:01.659Z,10.90
2019-03-26T17:05:30.403Z,10.90
2019-03-26T17:08:00.493Z,10.80
2019-03-26T17:10:29.181Z,10.80
2019-03-26T17:12:58.812Z,10.70
2019-03-26T17:15:27.518Z,10.70
2019-03-26T17:17:57.360Z,10.60
2019-03-26T17:20:25.863Z,10.60
2019-03-26T17:22:55.834Z,10.50
2019-03-26T17:25:24.958Z,10.40
2019-03-26T17:27:55.140Z,10.40
2019-03-26T17:30:23.737Z,10.40
2019-03-26T17:32:52.208Z,10.50
2019-03-26T17:35:20.763Z,10.40
2019-03-26T17:37:59.416Z,10.40
2019-03-26T17:40:21.712Z,10.30
2019-03-26T17:42:51.307Z,10.30
2019-03-26T17:45:19.825Z,10.30
2019-03-26T17:47:48.728Z,10.20
2019-03-26T17:50:23.801Z,10.20
2019-03-26T17:52:52.321Z,10.10
2019-03-26T17:55:23.886Z,10.00
2019-03-26T17:57:52.355Z,9.90
2019-03-26T18:00:29.165Z,9.80
2019-03-26T18:02:57.739Z,9.70
2019-03-26T18:05:28.130Z,9.60
2019-03-26T18:07:56.961Z,9.50
2019-03-26T18:10:26.964Z,9.40
2019-03-26T18:12:55.506Z,9.30
2019-03-26T18:15:24.090Z,9.20
2019-03-26T18:17:52.652Z,9.20
2019-03-26T18:20:32.010Z,9.10
2019-03-26T18:22:51.380Z,9.00
2019-03-26T18:25:19.863Z,9.00
2019-03-26T18:27:48.325Z,8.90
2019-03-26T18:30:19.728Z,8.80
2019-03-26T18:32:48.200Z,8.80
2019-03-26T18:35:16.783Z,8.70
2019-03-26T18:37:45.319Z,8.70
2019-03-26T18:40:15.006Z,8.70
2019-03-26T18:42:45.248Z,8.60
2019-03-26T18:45:17.220Z,8.60
2019-03-26T18:47:46.571Z,8.60
2019-03-26T18:50:15.670Z,8.60
2019-03-26T18:52:44.133Z,8.50
2019-03-26T18:55:12.837Z,8.50
2019-03-26T18:57:42.200Z,8.60
2019-03-26T19:00:13.412Z,8.60
2019-03-26T19:02:44.123Z,8.50
2019-03-26T19:05:14.208Z,8.50
2019-03-26T19:07:44.344Z,8.60
2019-03-26T19:10:30.503Z,8.50
2019-03-26T19:13:01.299Z,8.60
2019-03-26T19:15:29.973Z,8.60
2019-03-26T19:17:59.079Z,8.60
2019-03-26T19:20:27.676Z,8.60
2019-03-26T19:22:58.645Z,8.60
2019-03-26T19:25:28.671Z,8.50
2019-03-26T19:27:59.475Z,8.60
2019-03-26T19:30:28.022Z,8.60
2019-03-26T19:32:57.864Z,8.60
2019-03-26T19:35:28.087Z,8.60
2019-03-26T19:37:59.459Z,8.50
2019-03-26T19:40:31.599Z,8.50
2019-03-26T19:43:10.054Z,8.50
2019-03-26T19:45:30.338Z,8.50
2019-03-26T19:47:59.271Z,8.50
2019-03-26T19:50:28.374Z,8.50
2019-03-26T19:52:56.821Z,8.40
2019-03-26T19:55:29.090Z,8.40
2019-03-26T19:57:57.318Z,8.40
2019-03-26T20:00:27.626Z,8.40
2019-03-26T20:02:56.493Z,8.40
2019-03-26T20:05:24.984Z,8.40
2019-03-26T20:07:53.500Z,8.40
2019-03-26T20:10:22.297Z,8.40
2019-03-26T20:12:51.065Z,8.40
2019-03-26T20:15:20.029Z,8.40
2019-03-26T20:17:49.354Z,8.40
2019-03-26T20:20:18.790Z,8.40
2019-03-26T20:22:47.248Z,8.40
2019-03-26T20:25:16.170Z,8.30
2019-03-26T20:27:44.715Z,8.30
2019-03-26T20:30:13.694Z,8.40
2019-03-26T20:32:42.274Z,8.30
2019-03-26T20:35:13.000Z,8.30
2019-03-26T20:37:41.463Z,8.30
2019-03-26T20:40:12.441Z,8.30
2019-03-26T20:42:40.911Z,8.20
2019-03-26T20:45:14.205Z,8.20
2019-03-26T20:47:42.651Z,8.30
2019-03-26T20:50:13.270Z,8.20
2019-03-26T20:52:41.843Z,8.20
2019-03-26T20:55:14.542Z,8.20
2019-03-26T20:57:43.934Z,8.20
2019-03-26T21:00:16.199Z,8.20
2019-03-26T21:02:46.395Z,8.20
2019-03-26T21:05:14.947Z,8.10
2019-03-26T21:07:47.675Z,8.10
2019-03-26T21:10:15.091Z,8.10
2019-03-26T21:12:43.551Z,8.20
2019-03-26T21:15:14.096Z,8.10
2019-03-26T21:17:42.667Z,8.10
2019-03-26T21:20:11.556Z,8.10
2019-03-26T21:22:39.982Z,8.10
2019-03-26T21:25:09.399Z,8.20
2019-03-26T21:27:38.243Z,8.20
2019-03-26T21:30:15.602Z,8.20
2019-03-26T21:32:42.157Z,8.30
2019-03-26T21:35:12.760Z,8.30
2019-03-26T21:37:42.534Z,8.30
2019-03-26T21:40:13.073Z,8.30
2019-03-26T21:42:41.659Z,8.20
2019-03-26T21:45:12.410Z,8.20
2019-03-26T21:47:41.660Z,8.20
2019-03-26T21:50:11.528Z,8.10
2019-03-26T21:52:47.104Z,8.10
2019-03-26T21:55:16.927Z,8.00
2019-03-26T21:57:45.440Z,7.90
2019-03-26T22:00:14.173Z,7.90
2019-03-26T22:02:42.654Z,7.80
2019-03-26T22:05:12.259Z,7.80
2019-03-26T22:07:40.818Z,7.70
2019-03-26T22:10:10.793Z,7.70
2019-03-26T22:12:39.394Z,7.70
2019-03-26T22:15:11.381Z,7.70
2019-03-26T22:17:41.568Z,7.70
2019-03-26T22:20:12.811Z,7.70
2019-03-26T22:22:42.547Z,7.80
2019-03-26T22:25:12.227Z,7.70
2019-03-26T22:27:40.711Z,7.80
2019-03-26T22:30:10.711Z,7.70
2019-03-26T22:32:39.704Z,7.80
2019-03-26T22:35:08.924Z,7.80
2019-03-26T22:37:37.436Z,7.80
2019-03-26T22:40:08.309Z,7.80
2019-03-26T22:42:41.120Z,7.80
2019-03-26T22:45:11.720Z,7.80
2019-03-26T22:47:40.692Z,7.80
2019-03-26T22:50:13.151Z,7.80
2019-03-26T22:52:48.613Z,7.80
2019-03-26T22:55:18.125Z,7.90
2019-03-26T22:57:49.102Z,7.90
2019-03-26T23:00:19.894Z,7.90
2019-03-26T23:02:48.500Z,7.90
2019-03-26T23:05:17.492Z,7.90
2019-03-26T23:07:46.021Z,7.90
2019-03-26T23:10:16.258Z,8.00
2019-03-26T23:12:46.058Z,7.90
2019-03-26T23:15:20.256Z,8.00
2019-03-26T23:17:51.605Z,8.00
2019-03-26T23:20:20.259Z,8.00
2019-03-26T23:22:51.417Z,8.00
2019-03-26T23:25:20.630Z,8.00
2019-03-26T23:27:49.183Z,8.00
2019-03-26T23:30:18.890Z,8.00
2019-03-26T23:32:47.419Z,8.00
2019-03-26T23:35:16.096Z,8.00
2019-03-26T23:37:44.963Z,8.00
2019-03-26T23:40:14.435Z,8.00
2019-03-26T23:42:42.956Z,8.00
2019-03-26T23:45:11.854Z,8.00
2019-03-26T23:47:40.476Z,8.00
2019-03-26T23:50:10.161Z,8.00
2019-03-26T23:52:38.625Z,8.00
2019-03-26T23:55:07.835Z,8.00
2019-03-26T23:57:37.551Z,8.00
